Saint Joseph, MO (64501)

4:02 AM CDT on August 30, 2015 (GMT -0500)
East Saint Joseph | | Change Station
CLOSE
Current Station
Personal Weather Station
Location: St. Joseph, MO
Elevation: 850 ft
Nearby Weather Stations

Elev 850 ft 39.75 °N, 94.75 °W | Updated 14 seconds ago

Overcast
Overcast
61.8 °F
Feels Like 61.8 °F
N
0.0
Wind Variable Wind from NNW
Gusts 0.0 mph

Today
High -- | Low -- °F
--% Chance of Precip.
Yesterday
High -- | Low -- °F
Precip. -- in
6:45 AM 7:54 PM
Waxing Gibbous, 99% visible
Pressure 30.01 in
Visibility 7.0 miles
Clouds Few 3100 ft
Dew Point 58 °F
Humidity 89%
Rainfall 0.00 in
Snow Depth Not available.
UV 0.0 out of 12
Pollen 8.40 out of 12
Air Quality Not available.
Flu Activity Not available.
METAR KSTJ 300853Z AUTO 36003KT 7SM FEW031 17/16 A3002 RMK AO2 SLP160 T01670161 58009
Pressure 30.01 in
Visibility 7.0 miles
Clouds Few 3100 ft
Dew Point 58 °F
Humidity 89%
Rainfall 0.00 in
Snow Depth Not available.
UV 0.0 out of 12
Pollen 8.40 out of 12
Air Quality Not available.
Flu Activity Not available.
METAR KSTJ 300853Z AUTO 36003KT 7SM FEW031 17/16 A3002 RMK AO2 SLP160 T01670161 58009

10-Day Weather Forecast

×

Almanac

Astronomy

Aug. 30, 2015 Rise Set
Actual Time
Civil Twilight
Nautical Twilight
Astronomical Twilight
Moon
Length of Visible Light
Length of Day
Tomorrow will be .
, % of the Moon is Illuminated

Today's Extremes

State Highs State Lows

Community

WunderPhotos

Upload Photos

1,850,909 photos uploaded!

WunderBlogs® & News

Nearby

Air Quality

  Air Quality AQ Index Pollutant
Not available.

Snow Depth

Station Depth Elevation

Earthquake Activity

City Distance Mag. Time & Date
Minimum magnitude displayed is 2.5.

Coastal Water Temperatures

Place Temperature

Stations

Nearby Weather Stations

Station Location Temp. Windchill Dew Point Humidity Wind Precip. Elev Updated Type